Terminal Aerodrome Forecast
Issued by NWS

Home | Current Version | Previous Version | Text Only | Print | Product List | Glossary On
Versions: 1 2 3 4 5 6 7 8 9 10 11 12 13 14 15 16
181
FTUS45 KTFX 022323
TAFCTB
TAF
KCTB 022323Z 0300/0324 25017G26KT P6SM BKN090
      TEMPO 0300/0302 25025G32KT
     FM030900 26022G32KT P6SM BKN090
     FM031700 27025G35KT P6SM SCT090=

USA.gov is the U.S. government's official web portal to all federal, state and local government web resources and services.